Terminal Aerodrome Forecast
Issued by NWS

Home | Current Version | Previous Version | Text Only | Print | Product List | Glossary On
Versions: 1 2 3 4 5 6 7 8 9 10 11 12 13 14 15 16 17 18 19 20 21
000
FTUS44 KBMX 280500
TAFTOI
TAF
KTOI 280527Z 2806/2906 00000KT 4SM BR SCT250
      TEMPO 2809/2812 1SM BR BKN002
     FM281400 25005KT P6SM SCT007 BKN070
      TEMPO 2818/2820 4SM -SHRA BKN025
     FM282000 29012KT 3SM SHRA VCTS BKN025CB BKN070
     FM290400 30004KT P6SM SKC=

USA.gov is the U.S. government's official web portal to all federal, state and local government web resources and services.